sensor_id;sensor_type;location;lat;lon;timestamp;temperature;humidity
5344;DHT22;2694;48.954;8.928;2023-07-13T00:01:45;19.30;99.90
5344;DHT22;2694;48.954;8.928;2023-07-13T00:04:17;19.20;99.90
5344;DHT22;2694;48.954;8.928;2023-07-13T00:06:44;19.10;99.90
5344;DHT22;2694;48.954;8.928;2023-07-13T00:09:12;19.10;99.90
5344;DHT22;2694;48.954;8.928;2023-07-13T00:11:39;19.00;99.90
5344;DHT22;2694;48.954;8.928;2023-07-13T00:14:07;19.00;99.90
5344;DHT22;2694;48.954;8.928;2023-07-13T00:16:35;18.90;99.90
5344;DHT22;2694;48.954;8.928;2023-07-13T00:19:02;18.90;99.90
5344;DHT22;2694;48.954;8.928;2023-07-13T00:21:31;18.80;99.90
5344;DHT22;2694;48.954;8.928;2023-07-13T00:23:58;18.80;99.90
5344;DHT22;2694;48.954;8.928;2023-07-13T00:26:26;18.70;99.90
5344;DHT22;2694;48.954;8.928;2023-07-13T00:28:53;18.70;99.90
5344;DHT22;2694;48.954;8.928;2023-07-13T00:31:20;18.70;99.90
5344;DHT22;2694;48.954;8.928;2023-07-13T00:33:47;18.60;99.90
5344;DHT22;2694;48.954;8.928;2023-07-13T00:36:15;18.60;99.90
5344;DHT22;2694;48.954;8.928;2023-07-13T00:38:43;18.60;99.90
5344;DHT22;2694;48.954;8.928;2023-07-13T00:41:10;18.60;99.90
5344;DHT22;2694;48.954;8.928;2023-07-13T00:43:37;18.50;99.90
5344;DHT22;2694;48.954;8.928;2023-07-13T00:46:21;18.40;99.90
5344;DHT22;2694;48.954;8.928;2023-07-13T00:48:50;18.40;99.90
5344;DHT22;2694;48.954;8.928;2023-07-13T00:51:20;18.30;99.90
5344;DHT22;2694;48.954;8.928;2023-07-13T00:53:51;18.30;99.90
5344;DHT22;2694;48.954;8.928;2023-07-13T00:56:19;18.30;99.90
5344;DHT22;2694;48.954;8.928;2023-07-13T00:58:46;18.10;99.90
5344;DHT22;2694;48.954;8.928;2023-07-13T01:01:13;18.20;99.90
5344;DHT22;2694;48.954;8.928;2023-07-13T01:03:40;18.10;99.90
5344;DHT22;2694;48.954;8.928;2023-07-13T01:06:08;18.10;99.90
5344;DHT22;2694;48.954;8.928;2023-07-13T01:08:35;18.10;99.90
5344;DHT22;2694;48.954;8.928;2023-07-13T01:11:04;18.00;99.90
5344;DHT22;2694;48.954;8.928;2023-07-13T01:13:31;17.90;99.90
5344;DHT22;2694;48.954;8.928;2023-07-13T01:16:03;17.90;99.90
5344;DHT22;2694;48.954;8.928;2023-07-13T01:18:31;18.00;99.90
5344;DHT22;2694;48.954;8.928;2023-07-13T01:21:02;18.00;99.90
5344;DHT22;2694;48.954;8.928;2023-07-13T01:23:31;18.00;99.90
5344;DHT22;2694;48.954;8.928;2023-07-13T01:26:01;17.90;99.90
5344;DHT22;2694;48.954;8.928;2023-07-13T01:28:28;17.90;99.90
5344;DHT22;2694;48.954;8.928;2023-07-13T01:30:57;17.90;99.90
5344;DHT22;2694;48.954;8.928;2023-07-13T01:33:25;17.90;99.90
5344;DHT22;2694;48.954;8.928;2023-07-13T01:35:52;17.80;99.90
5344;DHT22;2694;48.954;8.928;2023-07-13T01:38:21;17.80;99.90
5344;DHT22;2694;48.954;8.928;2023-07-13T01:40:50;17.70;99.90
5344;DHT22;2694;48.954;8.928;2023-07-13T01:43:17;17.70;99.90
5344;DHT22;2694;48.954;8.928;2023-07-13T01:45:45;17.70;99.90
5344;DHT22;2694;48.954;8.928;2023-07-13T01:48:12;17.60;99.90
5344;DHT22;2694;48.954;8.928;2023-07-13T01:50:39;17.60;99.90
5344;DHT22;2694;48.954;8.928;2023-07-13T01:53:06;17.50;99.90
5344;DHT22;2694;48.954;8.928;2023-07-13T01:55:35;17.40;99.90
5344;DHT22;2694;48.954;8.928;2023-07-13T01:58:02;17.40;99.90
5344;DHT22;2694;48.954;8.928;2023-07-13T02:00:30;17.40;99.90
5344;DHT22;2694;48.954;8.928;2023-07-13T02:02:57;17.40;99.90
5344;DHT22;2694;48.954;8.928;2023-07-13T02:05:24;17.20;99.90
5344;DHT22;2694;48.954;8.928;2023-07-13T02:07:51;17.20;99.90
5344;DHT22;2694;48.954;8.928;2023-07-13T02:10:18;17.10;99.90
5344;DHT22;2694;48.954;8.928;2023-07-13T02:12:48;17.00;99.90
5344;DHT22;2694;48.954;8.928;2023-07-13T02:15:16;16.80;99.90
5344;DHT22;2694;48.954;8.928;2023-07-13T02:17:43;16.90;99.90
5344;DHT22;2694;48.954;8.928;2023-07-13T02:20:11;16.80;99.90
5344;DHT22;2694;48.954;8.928;2023-07-13T02:22:37;16.70;99.90
5344;DHT22;2694;48.954;8.928;2023-07-13T02:25:05;16.50;99.90
5344;DHT22;2694;48.954;8.928;2023-07-13T02:27:32;16.30;99.90
5344;DHT22;2694;48.954;8.928;2023-07-13T02:30:01;16.30;99.90
5344;DHT22;2694;48.954;8.928;2023-07-13T02:32:28;16.20;99.90
5344;DHT22;2694;48.954;8.928;2023-07-13T02:34:55;16.10;99.90
5344;DHT22;2694;48.954;8.928;2023-07-13T02:37:22;16.00;99.90
5344;DHT22;2694;48.954;8.928;2023-07-13T02:39:49;16.00;99.90
5344;DHT22;2694;48.954;8.928;2023-07-13T02:42:16;15.90;99.90
5344;DHT22;2694;48.954;8.928;2023-07-13T02:44:43;15.90;99.90
5344;DHT22;2694;48.954;8.928;2023-07-13T02:47:11;16.00;99.90
5344;DHT22;2694;48.954;8.928;2023-07-13T02:49:38;16.00;99.90
5344;DHT22;2694;48.954;8.928;2023-07-13T02:52:06;16.00;99.90
5344;DHT22;2694;48.954;8.928;2023-07-13T02:54:33;15.90;99.90
5344;DHT22;2694;48.954;8.928;2023-07-13T02:57:00;15.90;99.90
5344;DHT22;2694;48.954;8.928;2023-07-13T02:59:27;15.80;99.90
5344;DHT22;2694;48.954;8.928;2023-07-13T03:01:54;15.80;99.90
5344;DHT22;2694;48.954;8.928;2023-07-13T03:04:22;15.80;99.90
5344;DHT22;2694;48.954;8.928;2023-07-13T03:06:49;15.70;99.90
5344;DHT22;2694;48.954;8.928;2023-07-13T03:09:16;15.70;99.90
5344;DHT22;2694;48.954;8.928;2023-07-13T03:11:43;15.60;99.90
5344;DHT22;2694;48.954;8.928;2023-07-13T03:14:10;15.70;99.90
5344;DHT22;2694;48.954;8.928;2023-07-13T03:16:37;15.70;99.90
5344;DHT22;2694;48.954;8.928;2023-07-13T03:19:05;15.70;99.90
5344;DHT22;2694;48.954;8.928;2023-07-13T03:21:33;15.60;99.90
5344;DHT22;2694;48.954;8.928;2023-07-13T03:24:00;15.60;99.90
5344;DHT22;2694;48.954;8.928;2023-07-13T03:26:27;15.50;99.90
5344;DHT22;2694;48.954;8.928;2023-07-13T03:28:54;15.60;99.90
5344;DHT22;2694;48.954;8.928;2023-07-13T03:31:24;15.80;99.90
5344;DHT22;2694;48.954;8.928;2023-07-13T03:33:52;15.90;99.90
5344;DHT22;2694;48.954;8.928;2023-07-13T03:36:20;16.10;99.90
5344;DHT22;2694;48.954;8.928;2023-07-13T03:38:50;16.20;99.90
5344;DHT22;2694;48.954;8.928;2023-07-13T03:41:17;16.30;99.90
5344;DHT22;2694;48.954;8.928;2023-07-13T03:43:45;16.40;99.90
5344;DHT22;2694;48.954;8.928;2023-07-13T03:46:14;16.40;99.90
5344;DHT22;2694;48.954;8.928;2023-07-13T03:48:41;16.40;99.90
5344;DHT22;2694;48.954;8.928;2023-07-13T03:51:09;16.40;99.90
5344;DHT22;2694;48.954;8.928;2023-07-13T03:53:39;16.50;99.90
5344;DHT22;2694;48.954;8.928;2023-07-13T03:56:08;16.60;99.90
5344;DHT22;2694;48.954;8.928;2023-07-13T03:58:36;16.50;99.90
5344;DHT22;2694;48.954;8.928;2023-07-13T04:01:06;16.50;99.90
5344;DHT22;2694;48.954;8.928;2023-07-13T04:03:34;16.50;99.90
5344;DHT22;2694;48.954;8.928;2023-07-13T04:06:02;16.50;99.90
5344;DHT22;2694;48.954;8.928;2023-07-13T04:08:32;16.50;99.90
5344;DHT22;2694;48.954;8.928;2023-07-13T04:11:00;16.50;99.90
5344;DHT22;2694;48.954;8.928;2023-07-13T04:13:29;16.40;99.90
5344;DHT22;2694;48.954;8.928;2023-07-13T04:15:56;16.40;99.90
5344;DHT22;2694;48.954;8.928;2023-07-13T04:18:23;16.40;99.90
5344;DHT22;2694;48.954;8.928;2023-07-13T04:20:50;16.30;99.90
5344;DHT22;2694;48.954;8.928;2023-07-13T04:23:18;16.20;99.90
5344;DHT22;2694;48.954;8.928;2023-07-13T04:25:45;16.20;99.90
5344;DHT22;2694;48.954;8.928;2023-07-13T04:28:15;16.20;99.90
5344;DHT22;2694;48.954;8.928;2023-07-13T04:30:44;16.20;99.90
5344;DHT22;2694;48.954;8.928;2023-07-13T04:33:12;16.20;99.90
5344;DHT22;2694;48.954;8.928;2023-07-13T04:35:39;16.30;99.90
5344;DHT22;2694;48.954;8.928;2023-07-13T04:38:06;16.30;99.90
5344;DHT22;2694;48.954;8.928;2023-07-13T04:40:33;16.40;99.90
5344;DHT22;2694;48.954;8.928;2023-07-13T04:43:00;16.50;99.90
5344;DHT22;2694;48.954;8.928;2023-07-13T04:45:27;16.50;99.90
5344;DHT22;2694;48.954;8.928;2023-07-13T04:47:55;16.60;99.90
5344;DHT22;2694;48.954;8.928;2023-07-13T04:50:22;16.80;99.90
5344;DHT22;2694;48.954;8.928;2023-07-13T04:52:50;16.90;99.90
5344;DHT22;2694;48.954;8.928;2023-07-13T04:55:17;16.90;99.90
5344;DHT22;2694;48.954;8.928;2023-07-13T04:57:44;16.90;99.90
5344;DHT22;2694;48.954;8.928;2023-07-13T05:00:12;17.00;99.90
5344;DHT22;2694;48.954;8.928;2023-07-13T05:02:43;17.10;99.90
5344;DHT22;2694;48.954;8.928;2023-07-13T05:05:14;17.20;99.90
5344;DHT22;2694;48.954;8.928;2023-07-13T05:07:41;17.40;99.90
5344;DHT22;2694;48.954;8.928;2023-07-13T05:10:09;17.50;99.90
5344;DHT22;2694;48.954;8.928;2023-07-13T05:12:36;17.60;99.90
5344;DHT22;2694;48.954;8.928;2023-07-13T05:15:04;17.60;99.90
5344;DHT22;2694;48.954;8.928;2023-07-13T05:17:31;17.50;99.90
5344;DHT22;2694;48.954;8.928;2023-07-13T05:19:58;17.50;99.90
5344;DHT22;2694;48.954;8.928;2023-07-13T05:22:26;17.40;99.90
5344;DHT22;2694;48.954;8.928;2023-07-13T05:24:53;17.40;99.90
5344;DHT22;2694;48.954;8.928;2023-07-13T05:27:20;17.50;99.90
5344;DHT22;2694;48.954;8.928;2023-07-13T05:29:47;17.60;99.90
5344;DHT22;2694;48.954;8.928;2023-07-13T05:32:14;17.80;99.90
5344;DHT22;2694;48.954;8.928;2023-07-13T05:34:41;17.90;99.90
5344;DHT22;2694;48.954;8.928;2023-07-13T05:37:09;18.10;99.90
5344;DHT22;2694;48.954;8.928;2023-07-13T05:39:37;18.30;99.90
5344;DHT22;2694;48.954;8.928;2023-07-13T05:42:05;18.30;99.90
5344;DHT22;2694;48.954;8.928;2023-07-13T05:44:32;18.50;99.90
5344;DHT22;2694;48.954;8.928;2023-07-13T05:46:59;18.60;99.90
5344;DHT22;2694;48.954;8.928;2023-07-13T05:49:26;18.60;99.90
5344;DHT22;2694;48.954;8.928;2023-07-13T05:51:53;18.70;99.90
5344;DHT22;2694;48.954;8.928;2023-07-13T05:54:20;18.70;99.90
5344;DHT22;2694;48.954;8.928;2023-07-13T05:56:48;18.80;99.90
5344;DHT22;2694;48.954;8.928;2023-07-13T05:59:15;19.00;99.90
5344;DHT22;2694;48.954;8.928;2023-07-13T06:01:43;19.00;99.90
5344;DHT22;2694;48.954;8.928;2023-07-13T06:04:10;18.90;99.90
5344;DHT22;2694;48.954;8.928;2023-07-13T06:06:37;18.90;99.90
5344;DHT22;2694;48.954;8.928;2023-07-13T06:09:04;19.00;99.90
5344;DHT22;2694;48.954;8.928;2023-07-13T06:11:31;19.00;99.90
5344;DHT22;2694;48.954;8.928;2023-07-13T06:14:00;19.00;99.90
5344;DHT22;2694;48.954;8.928;2023-07-13T06:16:27;19.10;99.90
5344;DHT22;2694;48.954;8.928;2023-07-13T06:18:53;19.10;99.90
5344;DHT22;2694;48.954;8.928;2023-07-13T06:21:22;19.20;99.90
5344;DHT22;2694;48.954;8.928;2023-07-13T06:23:50;19.30;99.90
5344;DHT22;2694;48.954;8.928;2023-07-13T06:26:18;19.40;99.90
5344;DHT22;2694;48.954;8.928;2023-07-13T06:28:45;19.30;99.90
5344;DHT22;2694;48.954;8.928;2023-07-13T06:31:14;19.40;99.90
5344;DHT22;2694;48.954;8.928;2023-07-13T06:33:41;19.60;99.90
5344;DHT22;2694;48.954;8.928;2023-07-13T06:36:09;19.90;99.90
5344;DHT22;2694;48.954;8.928;2023-07-13T06:38:36;20.10;99.90
5344;DHT22;2694;48.954;8.928;2023-07-13T06:41:05;20.50;99.90
5344;DHT22;2694;48.954;8.928;2023-07-13T06:43:32;20.60;99.90
5344;DHT22;2694;48.954;8.928;2023-07-13T06:45:59;20.60;99.90
5344;DHT22;2694;48.954;8.928;2023-07-13T06:48:28;20.80;99.90
5344;DHT22;2694;48.954;8.928;2023-07-13T06:50:55;18.70;99.90
5344;DHT22;2694;48.954;8.928;2023-07-13T06:53:22;21.30;99.90
5344;DHT22;2694;48.954;8.928;2023-07-13T06:55:49;22.30;99.90
5344;DHT22;2694;48.954;8.928;2023-07-13T06:58:18;21.60;99.90
5344;DHT22;2694;48.954;8.928;2023-07-13T07:00:46;21.60;99.90
5344;DHT22;2694;48.954;8.928;2023-07-13T07:03:13;21.90;99.90
5344;DHT22;2694;48.954;8.928;2023-07-13T07:05:41;22.00;99.10
5344;DHT22;2694;48.954;8.928;2023-07-13T07:08:08;21.90;99.00
5344;DHT22;2694;48.954;8.928;2023-07-13T07:10:36;21.80;98.80
5344;DHT22;2694;48.954;8.928;2023-07-13T07:13:03;21.90;99.30
5344;DHT22;2694;48.954;8.928;2023-07-13T07:15:30;22.00;99.50
5344;DHT22;2694;48.954;8.928;2023-07-13T07:17:57;22.00;99.60
5344;DHT22;2694;48.954;8.928;2023-07-13T07:20:24;22.10;99.90
5344;DHT22;2694;48.954;8.928;2023-07-13T07:22:53;22.10;98.70
5344;DHT22;2694;48.954;8.928;2023-07-13T07:25:20;22.00;98.30
5344;DHT22;2694;48.954;8.928;2023-07-13T07:27:47;22.00;98.30
5344;DHT22;2694;48.954;8.928;2023-07-13T07:30:14;22.30;98.90
5344;DHT22;2694;48.954;8.928;2023-07-13T07:32:41;22.40;98.10
5344;DHT22;2694;48.954;8.928;2023-07-13T07:35:08;22.40;97.70
5344;DHT22;2694;48.954;8.928;2023-07-13T07:37:35;22.50;97.50
5344;DHT22;2694;48.954;8.928;2023-07-13T07:40:05;22.50;96.20
5344;DHT22;2694;48.954;8.928;2023-07-13T07:42:33;22.60;96.60
5344;DHT22;2694;48.954;8.928;2023-07-13T07:45:00;22.50;97.00
5344;DHT22;2694;48.954;8.928;2023-07-13T07:47:27;22.60;96.70
5344;DHT22;2694;48.954;8.928;2023-07-13T07:49:54;22.80;97.20
5344;DHT22;2694;48.954;8.928;2023-07-13T07:52:21;22.70;96.10
5344;DHT22;2694;48.954;8.928;2023-07-13T07:54:48;22.70;95.80
5344;DHT22;2694;48.954;8.928;2023-07-13T07:57:16;22.70;95.80
5344;DHT22;2694;48.954;8.928;2023-07-13T07:59:43;22.90;96.00
5344;DHT22;2694;48.954;8.928;2023-07-13T08:02:10;22.90;95.70
5344;DHT22;2694;48.954;8.928;2023-07-13T08:04:37;22.90;95.50
5344;DHT22;2694;48.954;8.928;2023-07-13T08:07:05;23.00;94.40
5344;DHT22;2694;48.954;8.928;2023-07-13T08:09:32;23.20;95.10
5344;DHT22;2694;48.954;8.928;2023-07-13T08:11:59;23.20;94.40
5344;DHT22;2694;48.954;8.928;2023-07-13T08:14:27;23.10;94.60
5344;DHT22;2694;48.954;8.928;2023-07-13T08:16:55;23.20;95.20
5344;DHT22;2694;48.954;8.928;2023-07-13T08:19:22;23.30;92.90
5344;DHT22;2694;48.954;8.928;2023-07-13T08:21:49;23.40;93.50
5344;DHT22;2694;48.954;8.928;2023-07-13T08:24:16;23.50;93.00
5344;DHT22;2694;48.954;8.928;2023-07-13T08:26:44;23.70;91.70
5344;DHT22;2694;48.954;8.928;2023-07-13T08:29:12;23.70;91.70
5344;DHT22;2694;48.954;8.928;2023-07-13T08:31:40;23.40;92.10
5344;DHT22;2694;48.954;8.928;2023-07-13T08:34:07;23.60;92.80
5344;DHT22;2694;48.954;8.928;2023-07-13T08:36:34;23.60;91.20
5344;DHT22;2694;48.954;8.928;2023-07-13T08:39:01;23.60;91.00
5344;DHT22;2694;48.954;8.928;2023-07-13T08:41:28;23.70;91.70
5344;DHT22;2694;48.954;8.928;2023-07-13T08:43:58;23.60;91.00
5344;DHT22;2694;48.954;8.928;2023-07-13T08:46:28;23.70;92.20
5344;DHT22;2694;48.954;8.928;2023-07-13T08:49:02;23.80;92.00
5344;DHT22;2694;48.954;8.928;2023-07-13T08:51:35;24.10;91.50
5344;DHT22;2694;48.954;8.928;2023-07-13T08:54:12;24.20;90.00
5344;DHT22;2694;48.954;8.928;2023-07-13T08:56:45;24.20;90.70
5344;DHT22;2694;48.954;8.928;2023-07-13T08:59:15;24.20;91.90
5344;DHT22;2694;48.954;8.928;2023-07-13T09:01:54;24.50;91.80
5344;DHT22;2694;48.954;8.928;2023-07-13T09:04:28;24.60;90.30
5344;DHT22;2694;48.954;8.928;2023-07-13T09:07:03;24.70;91.10
5344;DHT22;2694;48.954;8.928;2023-07-13T09:09:39;24.90;90.10
5344;DHT22;2694;48.954;8.928;2023-07-13T09:12:14;24.70;89.70
5344;DHT22;2694;48.954;8.928;2023-07-13T09:14:45;24.40;90.40
5344;DHT22;2694;48.954;8.928;2023-07-13T09:17:17;24.50;90.60
5344;DHT22;2694;48.954;8.928;2023-07-13T09:19:52;24.70;90.10
5344;DHT22;2694;48.954;8.928;2023-07-13T09:22:21;25.00;90.20
5344;DHT22;2694;48.954;8.928;2023-07-13T09:24:55;25.30;88.60
5344;DHT22;2694;48.954;8.928;2023-07-13T09:27:30;25.50;89.20
5344;DHT22;2694;48.954;8.928;2023-07-13T09:30:03;25.60;89.90
5344;DHT22;2694;48.954;8.928;2023-07-13T09:32:34;25.90;86.70
5344;DHT22;2694;48.954;8.928;2023-07-13T09:35:11;25.70;86.10
5344;DHT22;2694;48.954;8.928;2023-07-13T09:37:38;25.40;85.70
5344;DHT22;2694;48.954;8.928;2023-07-13T09:40:17;25.40;86.00
5344;DHT22;2694;48.954;8.928;2023-07-13T09:42:45;25.40;86.50
5344;DHT22;2694;48.954;8.928;2023-07-13T09:45:26;25.30;87.50
5344;DHT22;2694;48.954;8.928;2023-07-13T09:47:59;25.60;87.30
5344;DHT22;2694;48.954;8.928;2023-07-13T09:50:27;26.00;85.70
5344;DHT22;2694;48.954;8.928;2023-07-13T09:52:55;26.20;86.00
5344;DHT22;2694;48.954;8.928;2023-07-13T09:55:26;25.90;83.20
5344;DHT22;2694;48.954;8.928;2023-07-13T09:57:55;25.80;83.80
5344;DHT22;2694;48.954;8.928;2023-07-13T10:00:25;26.00;84.50
5344;DHT22;2694;48.954;8.928;2023-07-13T10:03:01;26.30;84.00
5344;DHT22;2694;48.954;8.928;2023-07-13T10:05:37;26.60;82.60
5344;DHT22;2694;48.954;8.928;2023-07-13T10:08:05;26.60;81.90
5344;DHT22;2694;48.954;8.928;2023-07-13T10:10:33;26.60;80.90
5344;DHT22;2694;48.954;8.928;2023-07-13T10:13:01;26.60;80.30
5344;DHT22;2694;48.954;8.928;2023-07-13T10:15:32;26.50;79.90
5344;DHT22;2694;48.954;8.928;2023-07-13T10:18:00;26.20;79.50
5344;DHT22;2694;48.954;8.928;2023-07-13T10:20:27;26.20;79.00
5344;DHT22;2694;48.954;8.928;2023-07-13T10:22:59;26.10;78.20
5344;DHT22;2694;48.954;8.928;2023-07-13T10:25:29;26.30;79.30
5344;DHT22;2694;48.954;8.928;2023-07-13T10:28:02;26.30;77.90
5344;DHT22;2694;48.954;8.928;2023-07-13T10:30:35;26.60;76.90
5344;DHT22;2694;48.954;8.928;2023-07-13T10:33:10;26.90;78.50
5344;DHT22;2694;48.954;8.928;2023-07-13T10:35:40;27.00;77.00
5344;DHT22;2694;48.954;8.928;2023-07-13T10:38:13;27.10;77.70
5344;DHT22;2694;48.954;8.928;2023-07-13T10:40:45;26.80;74.30
5344;DHT22;2694;48.954;8.928;2023-07-13T10:43:18;26.60;73.80
5344;DHT22;2694;48.954;8.928;2023-07-13T10:45:48;26.40;74.80
5344;DHT22;2694;48.954;8.928;2023-07-13T10:48:16;26.30;75.50
5344;DHT22;2694;48.954;8.928;2023-07-13T10:50:46;26.30;76.20
5344;DHT22;2694;48.954;8.928;2023-07-13T10:53:21;26.30;77.30
5344;DHT22;2694;48.954;8.928;2023-07-13T10:55:58;26.60;76.90
5344;DHT22;2694;48.954;8.928;2023-07-13T10:58:29;26.90;75.10
5344;DHT22;2694;48.954;8.928;2023-07-13T11:01:07;27.00;75.90
5344;DHT22;2694;48.954;8.928;2023-07-13T11:03:37;27.20;70.80
5344;DHT22;2694;48.954;8.928;2023-07-13T11:06:08;26.70;71.70
5344;DHT22;2694;48.954;8.928;2023-07-13T11:08:38;26.50;73.70
5344;DHT22;2694;48.954;8.928;2023-07-13T11:11:36;26.60;72.10
5344;DHT22;2694;48.954;8.928;2023-07-13T11:14:04;26.60;72.10
5344;DHT22;2694;48.954;8.928;2023-07-13T11:16:36;26.70;70.70
5344;DHT22;2694;48.954;8.928;2023-07-13T11:22:24;26.90;70.90
5344;DHT22;2694;48.954;8.928;2023-07-13T11:24:57;26.90;74.00
5344;DHT22;2694;48.954;8.928;2023-07-13T11:27:35;26.90;74.40
5344;DHT22;2694;48.954;8.928;2023-07-13T11:30:23;27.10;72.60
5344;DHT22;2694;48.954;8.928;2023-07-13T11:33:16;27.10;71.60
5344;DHT22;2694;48.954;8.928;2023-07-13T11:35:51;27.10;72.50
5344;DHT22;2694;48.954;8.928;2023-07-13T11:38:21;26.80;70.00
5344;DHT22;2694;48.954;8.928;2023-07-13T11:40:53;26.70;71.40
5344;DHT22;2694;48.954;8.928;2023-07-13T11:43:20;26.60;68.90
5344;DHT22;2694;48.954;8.928;2023-07-13T11:45:49;26.70;67.30
5344;DHT22;2694;48.954;8.928;2023-07-13T11:48:28;26.60;67.20
5344;DHT22;2694;48.954;8.928;2023-07-13T11:51:01;26.60;69.40
5344;DHT22;2694;48.954;8.928;2023-07-13T11:53:36;26.70;66.90
5344;DHT22;2694;48.954;8.928;2023-07-13T11:56:06;26.80;67.70
5344;DHT22;2694;48.954;8.928;2023-07-13T11:58:34;26.90;68.60
5344;DHT22;2694;48.954;8.928;2023-07-13T12:01:02;26.90;66.10
5344;DHT22;2694;48.954;8.928;2023-07-13T12:03:32;26.80;65.00
5344;DHT22;2694;48.954;8.928;2023-07-13T12:06:02;26.70;65.00
5344;DHT22;2694;48.954;8.928;2023-07-13T12:08:31;26.50;64.90
5344;DHT22;2694;48.954;8.928;2023-07-13T12:11:04;26.30;67.40
5344;DHT22;2694;48.954;8.928;2023-07-13T12:13:37;26.50;66.90
5344;DHT22;2694;48.954;8.928;2023-07-13T12:16:16;26.60;67.00
5344;DHT22;2694;48.954;8.928;2023-07-13T12:18:44;26.60;67.50
5344;DHT22;2694;48.954;8.928;2023-07-13T12:21:18;26.90;69.70
5344;DHT22;2694;48.954;8.928;2023-07-13T12:23:48;27.10;65.80
5344;DHT22;2694;48.954;8.928;2023-07-13T12:26:17;27.10;64.60
5344;DHT22;2694;48.954;8.928;2023-07-13T12:28:47;26.90;64.80
5344;DHT22;2694;48.954;8.928;2023-07-13T12:31:29;26.80;67.00
5344;DHT22;2694;48.954;8.928;2023-07-13T12:33:57;26.70;67.00
5344;DHT22;2694;48.954;8.928;2023-07-13T12:36:25;26.90;67.00
5344;DHT22;2694;48.954;8.928;2023-07-13T12:38:52;26.80;66.20
5344;DHT22;2694;48.954;8.928;2023-07-13T12:41:19;26.70;65.90
5344;DHT22;2694;48.954;8.928;2023-07-13T12:43:50;26.50;66.70
5344;DHT22;2694;48.954;8.928;2023-07-13T12:46:18;26.30;68.10
5344;DHT22;2694;48.954;8.928;2023-07-13T12:48:50;26.40;67.20
5344;DHT22;2694;48.954;8.928;2023-07-13T12:51:21;26.40;63.50
5344;DHT22;2694;48.954;8.928;2023-07-13T12:53:51;26.50;64.60
5344;DHT22;2694;48.954;8.928;2023-07-13T12:56:23;26.50;65.80
5344;DHT22;2694;48.954;8.928;2023-07-13T12:58:57;26.60;66.50
5344;DHT22;2694;48.954;8.928;2023-07-13T13:01:27;26.80;66.50
5344;DHT22;2694;48.954;8.928;2023-07-13T13:03:55;26.60;66.20
5344;DHT22;2694;48.954;8.928;2023-07-13T13:06:25;26.90;66.80
5344;DHT22;2694;48.954;8.928;2023-07-13T13:08:53;27.00;67.40
5344;DHT22;2694;48.954;8.928;2023-07-13T13:11:22;27.20;67.60
5344;DHT22;2694;48.954;8.928;2023-07-13T13:13:51;27.00;64.40
5344;DHT22;2694;48.954;8.928;2023-07-13T13:16:21;26.90;66.40
5344;DHT22;2694;48.954;8.928;2023-07-13T13:18:51;26.80;65.40
5344;DHT22;2694;48.954;8.928;2023-07-13T13:21:18;26.70;65.80
5344;DHT22;2694;48.954;8.928;2023-07-13T13:23:46;26.60;67.80
5344;DHT22;2694;48.954;8.928;2023-07-13T13:26:14;26.60;68.50
5344;DHT22;2694;48.954;8.928;2023-07-13T13:28:42;26.60;67.10
5344;DHT22;2694;48.954;8.928;2023-07-13T13:31:11;26.50;67.30
5344;DHT22;2694;48.954;8.928;2023-07-13T13:33:39;26.70;68.30
5344;DHT22;2694;48.954;8.928;2023-07-13T13:36:14;26.80;66.40
5344;DHT22;2694;48.954;8.928;2023-07-13T13:38:43;26.80;66.70
5344;DHT22;2694;48.954;8.928;2023-07-13T13:41:11;26.90;67.10
5344;DHT22;2694;48.954;8.928;2023-07-13T13:43:40;27.00;66.30
5344;DHT22;2694;48.954;8.928;2023-07-13T13:46:15;27.00;64.70
5344;DHT22;2694;48.954;8.928;2023-07-13T13:48:43;27.10;64.40
5344;DHT22;2694;48.954;8.928;2023-07-13T13:51:15;27.00;61.50
5344;DHT22;2694;48.954;8.928;2023-07-13T13:53:43;26.90;63.30
5344;DHT22;2694;48.954;8.928;2023-07-13T13:56:11;26.60;64.10
5344;DHT22;2694;48.954;8.928;2023-07-13T13:58:38;26.30;64.40
5344;DHT22;2694;48.954;8.928;2023-07-13T14:01:13;26.20;65.20
5344;DHT22;2694;48.954;8.928;2023-07-13T14:03:43;26.30;65.70
5344;DHT22;2694;48.954;8.928;2023-07-13T14:06:12;26.30;64.80
5344;DHT22;2694;48.954;8.928;2023-07-13T14:08:39;26.30;65.00
5344;DHT22;2694;48.954;8.928;2023-07-13T14:11:10;26.50;66.40
5344;DHT22;2694;48.954;8.928;2023-07-13T14:13:40;26.60;66.40
5344;DHT22;2694;48.954;8.928;2023-07-13T14:16:11;26.60;67.00
5344;DHT22;2694;48.954;8.928;2023-07-13T14:18:41;26.70;66.30
5344;DHT22;2694;48.954;8.928;2023-07-13T14:21:13;26.30;66.30
5344;DHT22;2694;48.954;8.928;2023-07-13T14:23:40;26.60;65.20
5344;DHT22;2694;48.954;8.928;2023-07-13T14:26:12;26.70;64.60
5344;DHT22;2694;48.954;8.928;2023-07-13T14:28:43;26.60;65.00
5344;DHT22;2694;48.954;8.928;2023-07-13T14:31:10;26.80;67.10
5344;DHT22;2694;48.954;8.928;2023-07-13T14:33:39;27.00;65.60
5344;DHT22;2694;48.954;8.928;2023-07-13T14:36:21;26.90;65.40
5344;DHT22;2694;48.954;8.928;2023-07-13T14:38:50;26.70;65.60
5344;DHT22;2694;48.954;8.928;2023-07-13T14:41:17;26.70;66.30
5344;DHT22;2694;48.954;8.928;2023-07-13T14:43:43;26.70;65.60
5344;DHT22;2694;48.954;8.928;2023-07-13T14:46:19;26.50;66.00
5344;DHT22;2694;48.954;8.928;2023-07-13T14:48:49;26.60;66.20
5344;DHT22;2694;48.954;8.928;2023-07-13T14:51:16;26.60;65.60
5344;DHT22;2694;48.954;8.928;2023-07-13T14:53:43;26.60;65.60
5344;DHT22;2694;48.954;8.928;2023-07-13T14:56:10;26.30;65.10
5344;DHT22;2694;48.954;8.928;2023-07-13T14:58:37;26.70;65.10
5344;DHT22;2694;48.954;8.928;2023-07-13T15:01:10;26.70;66.10
5344;DHT22;2694;48.954;8.928;2023-07-13T15:03:44;26.40;65.10
5344;DHT22;2694;48.954;8.928;2023-07-13T15:06:13;26.20;66.30
5344;DHT22;2694;48.954;8.928;2023-07-13T15:08:40;26.20;65.30
5344;DHT22;2694;48.954;8.928;2023-07-13T15:11:08;26.20;65.50
5344;DHT22;2694;48.954;8.928;2023-07-13T15:13:37;26.20;65.70
5344;DHT22;2694;48.954;8.928;2023-07-13T15:16:05;26.30;66.20
5344;DHT22;2694;48.954;8.928;2023-07-13T15:18:37;26.50;66.90
5344;DHT22;2694;48.954;8.928;2023-07-13T15:21:08;26.50;65.60
5344;DHT22;2694;48.954;8.928;2023-07-13T15:23:37;26.40;66.70
5344;DHT22;2694;48.954;8.928;2023-07-13T15:26:04;26.40;66.80
5344;DHT22;2694;48.954;8.928;2023-07-13T15:28:32;26.50;65.60
5344;DHT22;2694;48.954;8.928;2023-07-13T15:30:59;26.40;65.80
5344;DHT22;2694;48.954;8.928;2023-07-13T15:33:28;26.20;65.30
5344;DHT22;2694;48.954;8.928;2023-07-13T15:35:56;26.20;66.30
5344;DHT22;2694;48.954;8.928;2023-07-13T15:38:27;26.30;65.00
5344;DHT22;2694;48.954;8.928;2023-07-13T15:40:56;26.50;66.00
5344;DHT22;2694;48.954;8.928;2023-07-13T15:43:25;26.60;64.60
5344;DHT22;2694;48.954;8.928;2023-07-13T15:45:53;26.50;64.90
5344;DHT22;2694;48.954;8.928;2023-07-13T15:48:21;26.30;64.20
5344;DHT22;2694;48.954;8.928;2023-07-13T15:50:50;26.10;64.80
5344;DHT22;2694;48.954;8.928;2023-07-13T15:53:19;26.20;65.80
5344;DHT22;2694;48.954;8.928;2023-07-13T15:55:46;26.30;65.80
5344;DHT22;2694;48.954;8.928;2023-07-13T15:58:15;26.40;65.20
5344;DHT22;2694;48.954;8.928;2023-07-13T16:00:42;26.20;65.20
5344;DHT22;2694;48.954;8.928;2023-07-13T16:03:10;25.80;64.70
5344;DHT22;2694;48.954;8.928;2023-07-13T16:05:37;25.50;66.00
5344;DHT22;2694;48.954;8.928;2023-07-13T16:08:06;25.50;66.50
5344;DHT22;2694;48.954;8.928;2023-07-13T16:10:37;25.60;66.40
5344;DHT22;2694;48.954;8.928;2023-07-13T16:13:09;25.60;67.50
5344;DHT22;2694;48.954;8.928;2023-07-13T16:15:41;25.70;68.60
5344;DHT22;2694;48.954;8.928;2023-07-13T16:18:10;25.90;67.30